SKSM/SMR METAR and TAF weather

Enter ICAO airport designator
Station Type Date Time Source
SKSM METAR 2022/07/03 15:00 UTC NOAA

SKSM 031500Z 31006KT 9999 FEW020 32/25 Q1012 RMK A2989


Station Type Date Time Source
SKSM Decoded METAR 2022/07/03 15:00 UTC NOAA

Santa Marta / Simon Bolivar, Colombia (SKSM) 11-08N 074-14W 14M
Jul 03, 2022 - 11:00 AM EDT / 2022.07.03 1500 UTC
Wind: from the NW (310 degrees) at 7 MPH (6 KT):0
Visibility: greater than 7 mile(s):0
Sky conditions: mostly clear
Temperature: 89 F (32 C)
Heat index: 100.6 F (38.1 C):1
Dew Point: 77 F (25 C)
Relative Humidity: 66%
Pressure (altimeter): 29.88 in. Hg (1012 hPa)
ob: SKSM 031500Z 31006KT 9999 FEW020 32/25 Q1012 RMK A2989
cycle: 15

Station Type Date Time Source
SKSM TAF UTC NOAA

Error!

Example: see airport list